SondeTracker

Meteorological Radiosondes Database

Operations

Sounding was ended - last measurement: 2021-04-08 13:01:32z

MAP
About Radiosonde

Number: S2351598

Launch Site: Galeão (BR)

Type: RS41

AUX: NO

Frequency: 405.300 MHz

Max Speed: 78 km/h at 14921 m

Average Speed: 37.51 km/h

Max Altitude: 24980 m

Average Ascent Speed: 5.65 m/s

Average Descent Speed: 9.11 m/s

Status: UNKNOWN

Status Changes
Launch Site Type AUX Frequency Status Finder Landing Point Description Changes made by
APRS Statistics

Received Frames: 102

First Frame [UTC]: 2021-04-08 11:56:08z

Last Frame [UTC]: 2021-04-08 13:01:32z

Receivers: PY1TCM

Flight Time: 01:05:24 h

Distance From First Measurement: 26.31 km

Nearest City: [0.00 km]

Nearest Hunter: py1tcm [75.82 km]

Ground Altitude: 617 m

Distance from QTH: 0.00 km

APRS Data
Receiver Number Date/Time [UTC] φ λ Course [°] Speed [km/h] Altitude [m] Description
PY1TCMS23515982021-04-08 13:01:32-22.5127-43.295346914652Clb=-4.7m/s t=-70.0C h=18.7% p=138.2hPa 405.300 MHz Type=RS41-SGP Radiosonde http://sondehub.org/S2351598 http://radiosondy.info
PY1TCMS23515982021-04-08 13:01:04-22.5213-43.2999197814921Clb=-5.1m/s t=-70.2C h=16.2% p=132.1hPa 405.300 MHz Type=RS41-SGP Radiosonde http://sondehub.org/S2351598 http://radiosondy.info
PY1TCMS23515982021-04-08 13:00:32-22.5235-43.3006137214985Clb=-5.2m/s t=-70.7C h=16.5% p=130.7hPa 405.300 MHz Type=RS41-SGP Radiosonde http://sondehub.org/S2351598 http://radiosondy.info
PY1TCMS23515982021-04-08 13:00:04-22.5272-43.3015156315109Clb=-5.4m/s t=-70.8C h=15.5% p=128.0hPa 405.300 MHz Type=RS41-SGP Radiosonde http://sondehub.org/S2351598 http://radiosondy.info
PY1TCMS23515982021-04-08 12:59:07-22.5382-43.3049294115565Clb=-5.8m/s t=-72.3C h=14.0% p=118.5hPa 405.300 MHz Type=RS41-SGP Radiosonde http://sondehub.org/S2351598 http://radiosondy.info
PY1TCMS23515982021-04-08 12:58:45-22.5392-43.3055304415623Clb=-5.9m/s t=-72.6C h=13.9% p=117.3hPa 405.300 MHz Type=RS41-SGP Radiosonde http://sondehub.org/S2351598 http://radiosondy.info
PY1TCMS23515982021-04-08 12:58:22-22.5436-43.3088345415888Clb=-5.7m/s t=-73.5C h=13.2% p=112.2hPa 405.300 MHz Type=RS41-SGP Radiosonde http://sondehub.org/S2351598 http://radiosondy.info
PY1TCMS23515982021-04-08 12:57:56-22.5453-43.31325415975Clb=-5.4m/s t=-74.0C h=12.3% p=110.5hPa 405.300 MHz Type=RS41-SGP Radiosonde http://sondehub.org/S2351598 http://radiosondy.info
PY1TCMS23515982021-04-08 12:57:30-22.5517-43.3132164316297Clb=-5.9m/s t=-75.8C h=10.7% p=104.5hPa 405.300 MHz Type=RS41-SGP Radiosonde http://sondehub.org/S2351598 http://radiosondy.info
PY1TCMS23515982021-04-08 12:57:07-22.5523-43.3134183916333Clb=-5.8m/s t=-75.9C h=10.2% p=103.9hPa 405.300 MHz Type=RS41-SGP Radiosonde http://sondehub.org/S2351598 http://radiosondy.info
PY1TCMS23515982021-04-08 12:56:13-22.5583-43.3172295916692Clb=-6.0m/s t=-74.8C h=8.1% p=97.6hPa 405.300 MHz Type=RS41-SGP Radiosonde http://sondehub.org/S2351598 http://radiosondy.info/s
PY1TCMS23515982021-04-08 12:55:33-22.5649-43.3216187616980Clb=-6.7m/s t=-72.6C h=6.7% p=92.9hPa 405.300 MHz Type=RS41-SGP Radiosonde http://sondehub.org/S2351598 http://radiosondy.info/s
PY1TCMS23515982021-04-08 12:54:40-22.5742-43.32143472017448Clb=-6.6m/s t=-69.6C h=5.4% p=85.8hPa 405.300 MHz Type=RS41-SGP Radiosonde http://sondehub.org/S2351598 http://radiosondy.info/s
PY1TCMS23515982021-04-08 12:54:12-22.5747-43.3213359917534Clb=-6.4m/s t=-69.9C h=5.5% p=84.6hPa 405.300 MHz Type=RS41-SGP Radiosonde http://sondehub.org/S2351598 http://radiosondy.info/s
PY1TCMS23515982021-04-08 12:52:45-22.5785-43.3247222018154Clb=-6.7m/s t=-70.4C h=5.3% p=76.3hPa 405.300 MHz Type=RS41-SGP Radiosonde http://sondehub.org/S2351598 http://radiosondy.info/s
PY1TCMS23515982021-04-08 12:52:17-22.5794-43.3253572018277Clb=-6.7m/s t=-70.6C h=5.1% p=74.7hPa 405.300 MHz Type=RS41-SGP Radiosonde http://sondehub.org/S2351598 http://radiosondy.info/s
PY1TCMS23515982021-04-08 12:51:50-22.5805-43.32432821718487Clb=-6.9m/s t=-71.3C h=5.2% p=72.1hPa 405.300 MHz Type=RS41-SGP Radiosonde http://sondehub.org/S2351598 http://radiosondy.info/s
PY1TCMS23515982021-04-08 12:51:12-22.5803-43.3233217618721Clb=-7.3m/s t=-72.2C h=4.9% p=69.3hPa 405.300 MHz Type=RS41-SGP Radiosonde http://sondehub.org/S2351598 http://radiosondy.info/s
PY1TCMS23515982021-04-08 12:50:32-22.5803-43.323656618930Clb=-7.2m/s t=-73.7C h=5.5% p=66.9hPa 405.300 MHz Type=RS41-SGP Radiosonde http://sondehub.org/S2351598 http://radiosondy.info/s
PY1TCMS23515982021-04-08 12:48:33-22.585-43.31843133120023Clb=-8.5m/s t=-64.4C h=2.6% p=55.8hPa 405.300 MHz Type=RS41-SGP Radiosonde http://sondehub.org/S2351598 http://radiosondy.info/s
PY1TCMS23515982021-04-08 12:46:59-22.5893-43.31492951920875Clb=-9.9m/s t=-60.2C h=2.0% p=48.6hPa 405.300 MHz Type=RS41-SGP Radiosonde http://sondehub.org/S2351598 http://radiosondy.info/s
PY1TCMS23515982021-04-08 12:46:27-22.5894-43.31412622421001Clb=-9.7m/s t=-60.6C h=2.0% p=47.6hPa 405.300 MHz Type=RS41-SGP Radiosonde http://sondehub.org/S2351598 http://radiosondy.info/s
PY1TCMS23515982021-04-08 12:45:40-22.588-43.31192402021358Clb=-10.0m/s t=-61.4C h=2.1% p=45.0hPa 405.300 MHz Type=RS41-SGP Radiosonde http://sondehub.org/S2351598 http://radiosondy.info/
PY1TCMS23515982021-04-08 12:44:00-22.5838-43.30682702622471Clb=-11.4m/s t=-56.8C h=1.7% p=37.6hPa 405.300 MHz Type=RS41-SGP Radiosonde http://sondehub.org/S2351598 http://radiosondy.info/
PY1TCMS23515982021-04-08 12:43:32-22.5837-43.30622413322563Clb=-11.7m/s t=-56.3C h=1.7% p=37.1hPa 405.300 MHz Type=RS41-SGP Radiosonde http://sondehub.org/S2351598 http://radiosondy.info/
PY1TCMS23515982021-04-08 12:43:11-22.5832-43.30422421722920Clb=-12.5m/s t=-54.4C h=1.4% p=35.1hPa 405.300 MHz Type=RS41-SGP Radiosonde http://sondehub.org/S2351598 http://radiosondy.info/
PY1TCMS23515982021-04-08 12:43:00-22.5821-43.30282492023293Clb=-13.2m/s t=-54.4C h=1.5% p=33.1hPa 405.300 MHz Type=RS41-SGP Radiosonde http://sondehub.org/S2351598 http://radiosondy.info/
PY1TCMS23515982021-04-08 12:42:57-22.5813-43.30042423023678Clb=-13.3m/s t=-54.5C h=1.5% p=31.1hPa 405.300 MHz Type=RS41-SGP Radiosonde http://sondehub.org/S2351598 http://radiosondy.info/
PY1TCMS23515982021-04-08 12:42:56-22.5807-43.2982591924105Clb=-13.7m/s t=-53.7C h=1.4% p=29.1hPa 405.300 MHz Type=RS41-SGP Radiosonde http://sondehub.org/S2351598 http://radiosondy.info/
PY1TCMS23515982021-04-08 12:42:52-22.5802-43.2962582824489Clb=-14.2m/s t=-52.6C h=1.5% p=27.5hPa 405.300 MHz Type=RS41-SGP Radiosonde http://sondehub.org/S2351598 http://radiosondy.info/
PY1TCMS23515982021-04-08 12:42:38-22.5801-43.29322803524980Clb=-27.8m/s t=-50.2C h=1.2% p=25.5hPa 405.300 MHz Type=RS41-SGP Radiosonde http://sondehub.org/S2351598 http://radiosondy.info/
PY1TCMS23515982021-04-08 12:42:35-22.5803-43.29112672624890Clb=5.8m/s t=-50.2C h=1.2% p=25.8hPa 405.300 MHz Type=RS41-SGP Radiosonde http://sondehub.org/S2351598 http://radiosondy.info/so
PY1TCMS23515982021-04-08 12:42:33-22.58-43.28832523124692Clb=4.6m/s t=-51.2C h=1.2% p=26.6hPa 405.300 MHz Type=RS41-SGP Radiosonde http://sondehub.org/S2351598 http://radiosondy.info/so
PY1TCMS23515982021-04-08 12:42:30-22.5795-43.28542692624489Clb=4.6m/s t=-52.4C h=1.3% p=27.4hPa 405.300 MHz Type=RS41-SGP Radiosonde http://sondehub.org/S2351598 http://radiosondy.info/so
PY1TCMS23515982021-04-08 12:42:28-22.5788-43.28312663524294Clb=7.3m/s t=-53.8C h=1.4% p=28.3hPa 405.300 MHz Type=RS41-SGP Radiosonde http://sondehub.org/S2351598 http://radiosondy.info/so
PY1TCMS23515982021-04-08 12:42:26-22.5785-43.2812652424090Clb=5.8m/s t=-53.3C h=1.3% p=29.2hPa 405.300 MHz Type=RS41-SGP Radiosonde http://sondehub.org/S2351598 http://radiosondy.info/so
PY1TCMS23515982021-04-08 12:42:24-22.5781-43.2792603123902Clb=5.7m/s t=-54.4C h=1.4% p=30.0hPa 405.300 MHz Type=RS41-SGP Radiosonde http://sondehub.org/S2351598 http://radiosondy.info/so
PY1TCMS23515982021-04-08 12:42:20-22.5773-43.27642372823695Clb=5.1m/s t=-54.3C h=1.4% p=31.0hPa 405.300 MHz Type=RS41-SGP Radiosonde http://sondehub.org/S2351598 http://radiosondy.info/so
PY1TCMS23515982021-04-08 12:41:47-22.576-43.2742363323513Clb=4.8m/s t=-54.0C h=1.4% p=31.9hPa 405.300 MHz Type=RS41-SGP Radiosonde http://sondehub.org/S2351598 http://radiosondy.info/so
PY1TCMS23515982021-04-08 12:40:11-22.5736-43.26932242022995Clb=8.2m/s t=-54.5C h=1.4% p=34.6hPa 405.300 MHz Type=RS41-SGP Radiosonde http://sondehub.org/S2351598 http://radiosondy.info/so
PY1TCMS23515982021-04-08 12:39:31-22.5733-43.26872431522915Clb=8.2m/s t=-54.4C h=1.4% p=35.0hPa 405.300 MHz Type=RS41-SGP Radiosonde http://sondehub.org/S2351598 http://radiosondy.info/so
PY1TCMS23515982021-04-08 12:38:52-22.5732-43.26743002022754Clb=6.9m/s t=-54.9C h=1.3% p=35.9hPa 405.300 MHz Type=RS41-SGP Radiosonde http://sondehub.org/S2351598 http://radiosondy.info/so
PY1TCMS23515982021-04-08 12:38:14-22.5726-43.26482593322517Clb=6.5m/s t=-56.1C h=1.5% p=37.3hPa 405.300 MHz Type=RS41-SGP Radiosonde http://sondehub.org/S2351598 http://radiosondy.info/so
PY1TCMS23515982021-04-08 12:37:39-22.5723-43.26312551722366Clb=5.2m/s t=-57.0C h=1.5% p=38.2hPa 405.300 MHz Type=RS41-SGP Radiosonde http://sondehub.org/S2351598 http://radiosondy.info/so
PY1TCMS23515982021-04-08 12:37:04-22.5718-43.26222411522175Clb=5.3m/s t=-57.7C h=1.5% p=39.4hPa 405.300 MHz Type=RS41-SGP Radiosonde http://sondehub.org/S2351598 http://radiosondy.info/so
PY1TCMS23515982021-04-08 12:36:23-22.5703-43.26082112421994Clb=4.6m/s t=-58.9C h=1.7% p=40.5hPa 405.300 MHz Type=RS41-SGP Radiosonde http://sondehub.org/S2351598 http://radiosondy.info/so
PY1TCMS23515982021-04-08 12:35:21-22.5686-43.25922322621813Clb=4.7m/s t=-58.6C h=1.6% p=41.7hPa 405.300 MHz Type=RS41-SGP Radiosonde http://sondehub.org/S2351598 http://radiosondy.info/so
PY1TCMS23515982021-04-08 12:34:44-22.5671-43.25742223121635Clb=5.2m/s t=-60.5C h=1.9% p=42.9hPa 405.300 MHz Type=RS41-SGP Radiosonde http://sondehub.org/S2351598 http://radiosondy.info/so
PY1TCMS23515982021-04-08 12:34:08-22.5657-43.25552443021447Clb=6.6m/s t=-60.9C h=1.8% p=44.2hPa 405.300 MHz Type=RS41-SGP Radiosonde http://sondehub.org/S2351598 http://radiosondy.info/so
PY1TCMS23515982021-04-08 12:33:30-22.5649-43.25372332421265Clb=6.6m/s t=-60.8C h=1.9% p=45.5hPa 405.300 MHz Type=RS41-SGP Radiosonde http://sondehub.org/S2351598 http://radiosondy.info/so
PY1TCMS23515982021-04-08 12:32:51-22.564-43.25162562821069Clb=6.5m/s t=-61.0C h=2.0% p=47.0hPa 405.300 MHz Type=RS41-SGP Radiosonde http://sondehub.org/S2351598 http://radiosondy.info/so
PY1TCMS23515982021-04-08 12:32:14-22.5645-43.24933032220830Clb=6.1m/s t=-61.1C h=1.9% p=48.8hPa 405.300 MHz Type=RS41-SGP Radiosonde http://sondehub.org/S2351598 http://radiosondy.info/so
PY1TCMS23515982021-04-08 12:31:35-22.5653-43.24873282220707Clb=7.3m/s t=-60.8C h=2.0% p=49.8hPa 405.300 MHz Type=RS41-SGP Radiosonde http://sondehub.org/S2351598 http://radiosondy.info/so
PY1TCMS23515982021-04-08 12:30:59-22.5688-43.2473372220391Clb=4.0m/s t=-62.7C h=2.3% p=52.4hPa 405.300 MHz Type=RS41-SGP Radiosonde http://sondehub.org/S2351598 http://radiosondy.info/so
PY1TCMS23515982021-04-08 12:30:33-22.5701-43.24542842820190Clb=6.2m/s t=-65.0C h=2.9% p=54.1hPa 405.300 MHz Type=RS41-SGP Radiosonde http://sondehub.org/S2351598 http://radiosondy.info/so
PY1TCMS23515982021-04-08 12:29:10-22.5713-43.24343223520008Clb=7.4m/s t=-65.8C h=3.3% p=55.8hPa 405.300 MHz Type=RS41-SGP Radiosonde http://sondehub.org/S2351598 http://radiosondy.info/so
PY1TCMS23515982021-04-08 12:28:29-22.5739-43.24193461919782Clb=5.9m/s t=-65.9C h=3.4% p=57.9hPa 405.300 MHz Type=RS41-SGP Radiosonde http://sondehub.org/S2351598 http://radiosondy.info/so
PY1TCMS23515982021-04-08 12:27:56-22.575-43.24163291319644Clb=4.9m/s t=-68.5C h=4.2% p=59.2hPa 405.300 MHz Type=RS41-SGP Radiosonde http://sondehub.org/S2351598 http://radiosondy.info/so
PY1TCMS23515982021-04-08 12:27:12-22.5752-43.2412241519460Clb=6.1m/s t=-69.2C h=4.5% p=61.1hPa 405.300 MHz Type=RS41-SGP Radiosonde http://sondehub.org/S2351598 http://radiosondy.info/so
PY1TCMS23515982021-04-08 12:26:37-22.575-43.242901919292Clb=8.3m/s t=-69.0C h=4.7% p=62.8hPa 405.300 MHz Type=RS41-SGP Radiosonde http://sondehub.org/S2351598 http://radiosondy.info/so
PY1TCMS23515982021-04-08 12:24:33-22.5776-43.2385200618673Clb=4.6m/s t=-71.6C h=5.6% p=69.8hPa 405.300 MHz Type=RS41-SGP Radiosonde http://sondehub.org/S2351598 http://radiosondy.info/so
PY1TCMS23515982021-04-08 12:24:16-22.5776-43.2384273618610Clb=7.4m/s t=-71.2C h=5.3% p=70.5hPa 405.300 MHz Type=RS41-SGP Radiosonde http://sondehub.org/S2351598 http://radiosondy.info/so
PY1TCMS23515982021-04-08 12:23:14-22.5777-43.23742922418438Clb=5.0m/s t=-71.1C h=5.3% p=72.6hPa 405.300 MHz Type=RS41-SGP Radiosonde http://sondehub.org/S2351598 http://radiosondy.info/so
PY1TCMS23515982021-04-08 12:22:40-22.5797-43.2368141918219Clb=5.2m/s t=-70.5C h=5.5% p=75.3hPa 405.300 MHz Type=RS41-SGP Radiosonde http://sondehub.org/S2351598 http://radiosondy.info/so
PY1TCMS23515982021-04-08 12:21:27-22.5849-43.2391442817778Clb=5.5m/s t=-69.7C h=6.4% p=81.1hPa 405.300 MHz Type=RS41-SGP Radiosonde http://sondehub.org/S2351598 http://radiosondy.info/so
PY1TCMS23515982021-04-08 12:20:37-22.5855-43.24392417695Clb=5.1m/s t=-69.9C h=6.6% p=82.2hPa 405.300 MHz Type=RS41-SGP Radiosonde http://sondehub.org/S2351598 http://radiosondy.info/so
PY1TCMS23515982021-04-08 12:20:00-22.5862-43.2407211517594Clb=6.9m/s t=-70.2C h=7.6% p=83.6hPa 405.300 MHz Type=RS41-SGP Radiosonde http://sondehub.org/S2351598 http://radiosondy.info/so
PY1TCMS23515982021-04-08 12:19:31-22.5873-43.24073492817424Clb=6.0m/s t=-69.5C h=8.4% p=86.0hPa 405.300 MHz Type=RS41-SGP Radiosonde http://sondehub.org/S2351598 http://radiosondy.info/so
PY1TCMS23515982021-04-08 12:18:31-22.5975-43.2417277616981Clb=4.9m/s t=-72.6C h=12.6% p=92.7hPa 405.300 MHz Type=RS41-SGP Radiosonde http://sondehub.org/S2351598 http://radiosondy.info/s
PY1TCMS23515982021-04-08 12:18:00-22.5998-43.2431337616912Clb=4.3m/s t=-74.6C h=14.8% p=93.8hPa 405.300 MHz Type=RS41-SGP Radiosonde http://sondehub.org/S2351598 http://radiosondy.info/s
PY1TCMS23515982021-04-08 12:17:31-22.6035-43.2462275716750Clb=6.1m/s t=-75.4C h=16.5% p=96.4hPa 405.300 MHz Type=RS41-SGP Radiosonde http://sondehub.org/S2351598 http://radiosondy.info/s
PY1TCMS23515982021-04-08 12:17:00-22.6084-43.2494334416529Clb=3.8m/s t=-76.8C h=18.6% p=100.2hPa 405.300 MHz Type=RS41-SGP Radiosonde http://sondehub.org/S2351598 http://radiosondy.info/
PY1TCMS23515982021-04-08 12:16:43-22.6131-43.2514215716284Clb=6.4m/s t=-76.2C h=18.0% p=104.5hPa 405.300 MHz Type=RS41-SGP Radiosonde http://sondehub.org/S2351598 http://radiosondy.info/
PY1TCMS23515982021-04-08 12:16:40-22.6136-43.2516185216261Clb=6.1m/s t=-76.0C h=17.8% p=104.9hPa 405.300 MHz Type=RS41-SGP Radiosonde http://sondehub.org/S2351598 http://radiosondy.info/
PY1TCMS23515982021-04-08 12:16:37-22.6212-43.2561326115968Clb=6.5m/s t=-74.1C h=18.0% p=110.4hPa 405.300 MHz Type=RS41-SGP Radiosonde http://sondehub.org/S2351598 http://radiosondy.info/
PY1TCMS23515982021-04-08 12:16:35-22.6221-43.2568406315930Clb=4.2m/s t=-73.7C h=17.9% p=111.1hPa 405.300 MHz Type=RS41-SGP Radiosonde http://sondehub.org/S2351598 http://radiosondy.info/
PY1TCMS23515982021-04-08 12:16:31-22.6308-43.2618145915516Clb=4.6m/s t=-73.5C h=19.6% p=119.2hPa 405.300 MHz Type=RS41-SGP Radiosonde http://sondehub.org/S2351598 http://radiosondy.info/
PY1TCMS23515982021-04-08 12:16:22-22.6373-43.2638166515298Clb=6.8m/s t=-72.3C h=19.5% p=123.8hPa 405.300 MHz Type=RS41-SGP Radiosonde http://sondehub.org/S2351598 http://radiosondy.info/
PY1TCMS23515982021-04-08 12:15:42-22.6423-43.2654187415140Clb=6.0m/s t=-71.3C h=20.0% p=127.1hPa 405.300 MHz Type=RS41-SGP Radiosonde http://sondehub.org/S2351598 http://radiosondy.info/
PY1TCMS23515982021-04-08 12:15:00-22.6474-43.2675237414972Clb=6.6m/s t=-71.6C h=22.8% p=130.8hPa 405.300 MHz Type=RS41-SGP Radiosonde http://sondehub.org/S2351598 http://radiosondy.info/
PY1TCMS23515982021-04-08 12:14:22-22.6558-43.2733476514644Clb=7.6m/s t=-70.6C h=23.0% p=138.1hPa 405.300 MHz Type=RS41-SGP Radiosonde http://sondehub.org/S2351598 http://radiosondy.info/
PY1TCMS23515982021-04-08 12:13:44-22.6565-43.274426514605Clb=10.2m/s t=-70.2C h=22.5% p=139.1hPa 405.300 MHz Type=RS41-SGP Radiosonde http://sondehub.org/S2351598 http://radiosondy.info
PY1TCMS23515982021-04-08 12:13:03-22.6602-43.2774355914412Clb=4.7m/s t=-69.3C h=21.3% p=143.7hPa 405.300 MHz Type=RS41-SGP Radiosonde http://sondehub.org/S2351598 http://radiosondy.info/
PY1TCMS23515982021-04-08 12:12:22-22.6642-43.2799276314218Clb=5.2m/s t=-67.7C h=19.2% p=148.4hPa 405.300 MHz Type=RS41-SGP Radiosonde http://sondehub.org/S2351598 http://radiosondy.info/
PY1TCMS23515982021-04-08 12:11:42-22.6688-43.2832445613949Clb=6.3m/s t=-66.2C h=16.9% p=155.2hPa 405.300 MHz Type=RS41-SGP Radiosonde http://sondehub.org/S2351598 http://radiosondy.info/
PY1TCMS23515982021-04-08 12:10:46-22.671-43.2855425713812Clb=7.1m/s t=-65.3C h=16.5% p=158.6hPa 405.300 MHz Type=RS41-SGP Radiosonde http://sondehub.org/S2351598 http://radiosondy.info/
PY1TCMS23515982021-04-08 12:10:00-22.6743-43.2889465013634Clb=4.5m/s t=-65.1C h=18.5% p=163.3hPa 405.300 MHz Type=RS41-SGP Radiosonde http://sondehub.org/S2351598 http://radiosondy.info/
PY1TCMS23515982021-04-08 12:09:23-22.6769-43.292494113481Clb=3.5m/s t=-64.5C h=19.0% p=167.5hPa 405.300 MHz Type=RS41-SGP Radiosonde http://sondehub.org/S2351598 http://radiosondy.info/
PY1TCMS23515982021-04-08 12:06:43-22.6894-43.3048476712696Clb=6.3m/s t=-59.3C h=14.8% p=190.0hPa 405.300 MHz Type=RS41-SGP Radiosonde http://sondehub.org/S2351598 http://radiosondy.info/
PY1TCMS23515982021-04-08 12:05:51-22.6935-43.3102535912482Clb=6.3m/s t=-57.6C h=14.2% p=196.6hPa 405.300 MHz Type=RS41-SGP Radiosonde http://sondehub.org/S2351598 http://radiosondy.info/
PY1TCMS23515982021-04-08 12:05:10-22.6938-43.3108535412460Clb=5.3m/s t=-57.4C h=14.3% p=197.3hPa 405.300 MHz Type=RS41-SGP Radiosonde http://sondehub.org/S2351598 http://radiosondy.info/
PY1TCMS23515982021-04-08 12:03:58-22.7028-43.3219484111809Clb=5.1m/s t=-53.2C h=17.2% p=218.5hPa 405.300 MHz Type=RS41-SGP Radiosonde http://sondehub.org/S2351598 http://radiosondy.info/
PY1TCMS23515982021-04-08 12:03:57-22.7031-43.3223525711789Clb=3.8m/s t=-53.1C h=17.7% p=219.2hPa 405.300 MHz Type=RS41-SGP Radiosonde http://sondehub.org/S2351598 http://radiosondy.info/
PY1TCMS23515982021-04-08 12:03:04-22.7097-43.3267203711268Clb=5.6m/s t=-48.8C h=7.3% p=237.3hPa 405.300 MHz Type=RS41-SGP Radiosonde http://sondehub.org/S2351598 http://radiosondy.info/s
PY1TCMS23515982021-04-08 12:02:33-22.711-43.327104811190Clb=4.7m/s t=-48.3C h=-1.0% p=240.1hPa 405.300 MHz Type=RS41-SGP Radiosonde http://sondehub.org/S2351598 http://radiosondy.info/
PY1TCMS23515982021-04-08 12:02:00-22.7143-43.327784311023Clb=3.1m/s t=-46.8C h=-1.0% p=246.4hPa 405.300 MHz Type=RS41-SGP Radiosonde http://sondehub.org/S2351598 http://radiosondy.info/
PY1TCMS23515982021-04-08 12:01:27-22.7179-43.3285114610818Clb=7.5m/s t=-45.1C h=-1.0% p=254.0hPa 405.300 MHz Type=RS41-SGP Radiosonde http://sondehub.org/S2351598 http://radiosondy.info/
PY1TCMS23515982021-04-08 12:00:52-22.7207-43.3291364610670Clb=6.1m/s t=-44.1C h=-1.0% p=259.6hPa 405.300 MHz Type=RS41-SGP Radiosonde http://sondehub.org/S2351598 http://radiosondy.info/
PY1TCMS23515982021-04-08 11:59:03-22.7319-43.334120489980Clb=7.6m/s t=-37.6C h=-1.0% p=287.4hPa 405.300 MHz Type=RS41-SGP Radiosonde http://sondehub.org/S2351598 http://radiosondy.info/
PY1TCMS23515982021-04-08 11:58:29-22.7325-43.334325309927Clb=6.6m/s t=-273.0C h=-1.0% p=289.5hPa 405.300 MHz Type=RS41-SGP Radiosonde http://sondehub.org/S2351598 http://radiosondy.info
PY1TCMS23515982021-04-08 11:57:54-22.7356-43.335120419729Clb=4.6m/s t=-273.0C h=-1.0% p=-1.0hPa 405.300 MHz Type=RS41 Radiosonde http://sondehub.org/S2351598 http://radiosondy.info/sond
PY1TCMS23515982021-04-08 11:56:08-22.7461-43.3375419208Clb=4.9m/s t=-273.0C h=-1.0% p=-1.0hPa 405.300 MHz Type=RS41 Radiosonde http://sondehub.org/S2351598 http://radiosondy.info/sond